createdAt,value
2023-01-13T00:00:43.453Z,46.49
2023-01-13T00:01:43.443Z,46.41
2023-01-13T00:02:43.534Z,46.41
2023-01-13T00:03:43.450Z,46.24
2023-01-13T00:04:43.533Z,46.33
2023-01-13T00:05:43.465Z,46.33
2023-01-13T00:06:43.456Z,46.38
2023-01-13T00:07:43.469Z,46.00
2023-01-13T00:08:43.472Z,46.02
2023-01-13T00:09:43.490Z,46.03
2023-01-13T00:10:43.459Z,46.13
2023-01-13T00:11:43.487Z,46.23
2023-01-13T00:12:43.492Z,46.59
2023-01-13T00:13:43.604Z,46.72
2023-01-13T00:14:43.504Z,46.64
2023-01-13T00:15:43.508Z,46.80
2023-01-13T00:16:43.478Z,47.01
2023-01-13T00:17:43.496Z,47.21
2023-01-13T00:18:43.481Z,47.36
2023-01-13T00:19:43.481Z,47.65
2023-01-13T00:20:43.496Z,47.65
2023-01-13T00:21:43.471Z,47.87
2023-01-13T00:22:43.535Z,48.08
2023-01-13T00:23:43.519Z,48.10
2023-01-13T00:24:43.500Z,48.24
2023-01-13T00:25:43.503Z,48.71
2023-01-13T00:26:43.517Z,48.75
2023-01-13T00:27:43.545Z,48.69
2023-01-13T00:28:43.514Z,48.53
2023-01-13T00:29:43.525Z,48.23
2023-01-13T00:30:43.558Z,48.02
2023-01-13T00:31:43.517Z,48.02
2023-01-13T00:32:43.513Z,47.98
2023-01-13T00:33:43.536Z,47.71
2023-01-13T00:34:43.538Z,47.44
2023-01-13T00:35:43.580Z,47.46
2023-01-13T00:36:43.542Z,47.35
2023-01-13T00:37:43.529Z,47.30
2023-01-13T00:38:43.549Z,47.15
2023-01-13T00:39:43.529Z,47.31
2023-01-13T00:40:43.531Z,47.47
2023-01-13T00:41:43.547Z,47.67
2023-01-13T00:42:43.534Z,47.75
2023-01-13T00:43:43.594Z,47.48
2023-01-13T00:44:43.533Z,47.48
2023-01-13T00:45:43.557Z,47.54
2023-01-13T00:46:43.593Z,47.37
2023-01-13T00:47:43.572Z,47.24
2023-01-13T00:48:43.606Z,47.24
2023-01-13T00:49:43.598Z,46.92
2023-01-13T00:50:43.575Z,46.71
2023-01-13T00:51:43.601Z,46.57
2023-01-13T00:52:43.561Z,46.32
2023-01-13T00:53:43.580Z,46.26
2023-01-13T00:54:43.579Z,46.27
2023-01-13T00:55:43.585Z,46.03
2023-01-13T00:56:43.628Z,45.62
2023-01-13T00:57:43.598Z,45.52
2023-01-13T00:58:43.585Z,45.52
2023-01-13T00:59:43.579Z,45.50
2023-01-13T01:00:43.595Z,45.43
2023-01-13T01:01:43.781Z,45.40
2023-01-13T01:02:43.628Z,45.24
2023-01-13T01:04:43.642Z,45.18
2023-01-13T01:05:43.592Z,45.18
2023-01-13T01:06:43.615Z,45.25
2023-01-13T01:07:43.600Z,45.38
2023-01-13T01:08:43.604Z,45.39
2023-01-13T01:09:43.614Z,45.67
2023-01-13T01:10:43.601Z,45.74
2023-01-13T01:11:43.608Z,45.76
2023-01-13T01:12:43.665Z,45.40
2023-01-13T01:14:43.641Z,45.11
2023-01-13T01:15:43.680Z,45.11
2023-01-13T01:16:43.625Z,45.02
2023-01-13T01:17:43.669Z,45.12
2023-01-13T01:18:43.636Z,45.12
2023-01-13T01:19:43.631Z,45.00
2023-01-13T01:21:43.635Z,44.95
2023-01-13T01:22:43.648Z,44.86
2023-01-13T01:23:43.645Z,44.77
2023-01-13T01:24:43.648Z,44.73
2023-01-13T01:25:43.685Z,44.75
2023-01-13T01:26:43.689Z,44.75
2023-01-13T01:28:43.678Z,44.72
2023-01-13T01:29:43.663Z,44.85
2023-01-13T01:30:43.673Z,44.73
2023-01-13T01:31:43.744Z,44.84
2023-01-13T01:32:43.661Z,44.81
2023-01-13T01:34:43.686Z,45.39
2023-01-13T01:35:43.703Z,45.67
2023-01-13T01:38:43.742Z,46.29
2023-01-13T01:39:43.680Z,46.99
2023-01-13T01:40:43.705Z,47.10
2023-01-13T01:41:43.711Z,46.29
2023-01-13T01:42:43.708Z,47.00
2023-01-13T01:43:43.680Z,47.35
2023-01-13T01:44:43.685Z,47.12
2023-01-13T01:46:43.828Z,47.32
2023-01-13T01:47:43.712Z,47.15
2023-01-13T01:50:43.715Z,47.20
2023-01-13T01:51:43.723Z,47.55
2023-01-13T01:52:43.733Z,47.77
2023-01-13T01:53:43.729Z,47.20
2023-01-13T01:54:43.783Z,46.89
2023-01-13T01:55:43.727Z,46.88
2023-01-13T01:56:43.738Z,46.55
2023-01-13T01:57:43.732Z,46.55
2023-01-13T01:58:43.741Z,46.47
2023-01-13T01:59:43.732Z,46.45
2023-01-13T02:00:43.763Z,46.63
2023-01-13T02:01:43.873Z,46.67
2023-01-13T02:02:43.878Z,46.34
2023-01-13T02:03:43.733Z,46.46
2023-01-13T02:04:43.770Z,46.95
2023-01-13T02:05:43.731Z,46.25
2023-01-13T02:06:43.749Z,45.90
2023-01-13T02:07:43.792Z,46.09
2023-01-13T02:08:43.756Z,46.15
2023-01-13T02:10:43.792Z,46.29
2023-01-13T02:11:43.777Z,46.29
2023-01-13T02:12:43.769Z,46.15
2023-01-13T02:13:43.758Z,46.34
2023-01-13T02:14:43.763Z,46.65
2023-01-13T02:15:43.824Z,46.42
2023-01-13T02:16:43.837Z,46.42
2023-01-13T02:17:43.783Z,46.34
2023-01-13T02:18:43.784Z,46.32
2023-01-13T02:19:43.769Z,46.45
2023-01-13T02:20:43.804Z,46.40
2023-01-13T02:21:43.786Z,46.40
2023-01-13T02:22:43.803Z,46.50
2023-01-13T02:23:43.838Z,46.34
2023-01-13T02:24:43.811Z,46.34
2023-01-13T02:25:43.807Z,46.40
2023-01-13T02:26:43.795Z,46.21
2023-01-13T02:27:43.807Z,46.14
2023-01-13T02:28:43.843Z,45.98
2023-01-13T02:29:43.798Z,46.01
2023-01-13T02:30:43.804Z,46.04
2023-01-13T02:31:43.935Z,45.91
2023-01-13T02:32:43.809Z,45.91
2023-01-13T02:33:43.812Z,45.90
2023-01-13T02:34:43.822Z,45.93
2023-01-13T02:35:43.816Z,46.16
2023-01-13T02:36:43.833Z,46.24
2023-01-13T02:37:43.829Z,46.38
2023-01-13T02:38:43.842Z,46.43
2023-01-13T02:39:43.825Z,46.43
2023-01-13T02:40:43.820Z,46.37
2023-01-13T02:41:43.833Z,46.14
2023-01-13T02:42:43.838Z,46.28
2023-01-13T02:43:43.857Z,46.54
2023-01-13T02:44:43.890Z,46.79
2023-01-13T02:45:43.878Z,46.96
2023-01-13T02:46:43.844Z,46.97
2023-01-13T02:47:43.857Z,47.11
2023-01-13T02:48:43.854Z,47.43
2023-01-13T02:49:43.888Z,47.54
2023-01-13T02:50:43.852Z,47.52
2023-01-13T02:51:43.859Z,47.46
2023-01-13T02:52:43.883Z,47.48
2023-01-13T02:53:43.866Z,47.42
2023-01-13T02:54:43.878Z,48.08
2023-01-13T02:55:43.884Z,48.08
2023-01-13T02:56:43.870Z,49.25
2023-01-13T02:57:43.918Z,49.76
2023-01-13T02:58:43.889Z,49.78
2023-01-13T02:59:43.923Z,50.70
2023-01-13T03:01:44.042Z,51.19
2023-01-13T03:02:43.988Z,51.60
2023-01-13T03:03:43.925Z,51.64
2023-01-13T03:04:43.941Z,51.43
2023-01-13T03:05:43.970Z,51.49
2023-01-13T03:06:43.945Z,51.15
2023-01-13T03:08:43.915Z,51.36
2023-01-13T03:09:43.917Z,51.66
2023-01-13T03:10:43.965Z,52.01
2023-01-13T03:11:43.938Z,52.01
2023-01-13T03:12:43.952Z,51.96
2023-01-13T03:13:43.935Z,52.15
2023-01-13T03:14:44.029Z,52.41
2023-01-13T03:15:43.959Z,52.41
2023-01-13T03:16:43.965Z,52.70
2023-01-13T03:17:43.926Z,52.88
2023-01-13T03:18:43.970Z,52.74
2023-01-13T03:19:43.922Z,52.63
2023-01-13T03:20:43.924Z,52.83
2023-01-13T03:21:43.949Z,52.88
2023-01-13T03:22:43.967Z,52.47
2023-01-13T03:23:43.995Z,52.64
2023-01-13T03:24:43.961Z,52.64
2023-01-13T03:25:43.962Z,52.62
2023-01-13T03:26:44.007Z,53.27
2023-01-13T03:27:43.960Z,53.27
2023-01-13T03:28:44.006Z,52.83
2023-01-13T03:29:44.011Z,52.80
2023-01-13T03:30:44.013Z,52.86
2023-01-13T03:31:44.038Z,52.48
2023-01-13T03:32:43.981Z,52.48
2023-01-13T03:33:44.016Z,53.07
2023-01-13T03:36:43.982Z,53.11
2023-01-13T03:37:44.005Z,52.94
2023-01-13T03:38:44.033Z,52.58
2023-01-13T03:39:44.066Z,52.80
2023-01-13T03:40:43.975Z,52.89
2023-01-13T03:41:44.033Z,53.04
2023-01-13T03:43:44.016Z,53.15
2023-01-13T03:44:44.089Z,53.23
2023-01-13T03:45:44.064Z,53.41
2023-01-13T03:46:44.046Z,53.30
2023-01-13T03:47:44.088Z,52.86
2023-01-13T03:48:44.007Z,52.86
2023-01-13T03:49:44.037Z,52.98
2023-01-13T03:50:44.013Z,52.96
2023-01-13T03:52:44.107Z,52.95
2023-01-13T03:54:44.064Z,52.93
2023-01-13T03:55:44.007Z,53.35
2023-01-13T03:56:44.024Z,52.81
2023-01-13T03:57:44.090Z,53.25
2023-01-13T03:58:44.077Z,53.27
2023-01-13T03:59:44.064Z,52.94
2023-01-13T04:00:44.068Z,53.29
2023-01-13T04:01:44.174Z,53.38
2023-01-13T04:02:44.027Z,53.51
2023-01-13T04:03:44.141Z,53.40
2023-01-13T04:04:44.074Z,53.55
2023-01-13T04:05:44.171Z,53.67
2023-01-13T04:06:44.085Z,53.67
2023-01-13T04:07:44.093Z,53.19
2023-01-13T04:08:44.092Z,53.63
2023-01-13T04:09:44.092Z,53.76
2023-01-13T04:10:44.103Z,53.73
2023-01-13T04:11:44.111Z,54.09
2023-01-13T04:12:44.097Z,54.53
2023-01-13T04:13:44.129Z,53.85
2023-01-13T04:14:44.102Z,53.85
2023-01-13T04:16:44.132Z,54.08
2023-01-13T04:17:44.116Z,53.83
2023-01-13T04:18:44.141Z,53.87
2023-01-13T04:19:44.116Z,54.03
2023-01-13T04:20:44.111Z,54.28
2023-01-13T04:21:44.162Z,54.17
2023-01-13T04:22:44.147Z,54.27
2023-01-13T04:23:44.130Z,54.05
2023-01-13T04:24:44.154Z,54.55
2023-01-13T04:25:44.144Z,54.46
2023-01-13T04:26:44.143Z,55.07
2023-01-13T04:27:44.136Z,54.62
2023-01-13T04:28:44.131Z,54.91
2023-01-13T04:29:44.152Z,55.54
2023-01-13T04:30:44.220Z,55.30
2023-01-13T04:31:44.123Z,55.05
2023-01-13T04:32:44.143Z,55.18
2023-01-13T04:33:44.158Z,55.51
2023-01-13T04:35:44.129Z,55.60
2023-01-13T04:36:44.173Z,55.63
2023-01-13T04:37:44.179Z,55.63
2023-01-13T04:39:44.167Z,55.85
2023-01-13T04:40:44.192Z,55.90
2023-01-13T04:41:44.120Z,55.72
2023-01-13T04:42:44.222Z,55.60
2023-01-13T04:43:44.181Z,55.60
2023-01-13T04:44:44.172Z,55.45
2023-01-13T04:45:44.170Z,55.64
2023-01-13T04:46:44.191Z,55.50
2023-01-13T04:47:44.233Z,55.36
2023-01-13T04:48:44.196Z,55.36
2023-01-13T04:49:44.198Z,55.10
2023-01-13T04:50:44.192Z,55.10
2023-01-13T04:52:44.149Z,55.53
2023-01-13T04:53:44.198Z,55.82
2023-01-13T04:54:44.167Z,56.07
2023-01-13T04:55:44.263Z,56.33
2023-01-13T04:56:44.201Z,56.33
2023-01-13T04:57:44.240Z,56.11
2023-01-13T04:58:44.186Z,55.84
2023-01-13T04:59:44.209Z,56.00
2023-01-13T05:01:44.301Z,56.25
2023-01-13T05:02:44.228Z,56.52
2023-01-13T05:04:44.370Z,56.17
2023-01-13T05:05:44.250Z,56.19
2023-01-13T05:06:44.228Z,56.52
2023-01-13T05:07:44.239Z,56.44
2023-01-13T05:09:44.265Z,57.04
2023-01-13T05:10:44.254Z,57.10
2023-01-13T05:11:44.209Z,57.51
2023-01-13T05:12:44.202Z,57.55
2023-01-13T05:13:44.250Z,57.87
2023-01-13T05:14:44.250Z,57.85
2023-01-13T05:15:44.490Z,57.99
2023-01-13T05:16:44.256Z,57.73
2023-01-13T05:17:44.239Z,57.73
2023-01-13T05:18:44.211Z,58.00
2023-01-13T05:19:44.260Z,58.48
2023-01-13T05:20:44.300Z,58.89
2023-01-13T05:21:44.317Z,59.48
2023-01-13T05:22:44.277Z,59.59
2023-01-13T05:23:44.334Z,59.97
2023-01-13T05:24:44.272Z,60.38
2023-01-13T05:25:44.706Z,60.48
2023-01-13T05:26:44.282Z,60.66
2023-01-13T05:27:44.286Z,60.66
2023-01-13T05:28:44.264Z,60.46
2023-01-13T05:29:44.284Z,60.41
2023-01-13T05:30:44.305Z,60.18
2023-01-13T05:31:44.270Z,60.75
2023-01-13T05:32:44.292Z,60.75
2023-01-13T05:33:44.296Z,60.79
2023-01-13T05:34:44.341Z,60.85
2023-01-13T05:35:44.267Z,60.56
2023-01-13T05:36:44.260Z,60.06
2023-01-13T05:37:44.273Z,60.25
2023-01-13T05:38:44.272Z,60.07
2023-01-13T05:39:44.269Z,59.83
2023-01-13T05:40:44.341Z,59.81
2023-01-13T05:41:44.349Z,59.13
2023-01-13T05:42:44.360Z,59.13
2023-01-13T05:43:44.284Z,59.02
2023-01-13T05:44:44.282Z,58.81
2023-01-13T05:45:44.306Z,58.90
2023-01-13T05:46:44.373Z,58.96
2023-01-13T05:47:44.341Z,58.95
2023-01-13T05:48:44.335Z,58.58
2023-01-13T05:49:44.301Z,59.19
2023-01-13T05:50:44.380Z,59.16
2023-01-13T05:51:44.350Z,59.20
2023-01-13T05:52:44.345Z,59.20
2023-01-13T05:53:44.348Z,59.38
2023-01-13T05:54:44.299Z,59.75
2023-01-13T05:55:44.358Z,59.25
2023-01-13T05:56:44.330Z,59.25
2023-01-13T05:57:44.308Z,59.40
2023-01-13T05:58:44.376Z,59.54
2023-01-13T05:59:44.374Z,60.37
2023-01-13T06:00:44.369Z,60.67
2023-01-13T06:01:44.345Z,60.55
2023-01-13T06:02:44.414Z,60.89
2023-01-13T06:03:44.404Z,60.46
2023-01-13T06:04:44.474Z,60.46
2023-01-13T06:06:44.386Z,60.58
2023-01-13T06:07:44.388Z,60.75
2023-01-13T06:08:44.420Z,60.64
2023-01-13T06:09:44.396Z,60.64
2023-01-13T06:10:44.397Z,60.71
2023-01-13T06:11:44.393Z,60.49
2023-01-13T06:12:44.409Z,60.49
2023-01-13T06:13:44.400Z,60.63
2023-01-13T06:14:44.418Z,60.65
2023-01-13T06:15:44.513Z,60.46
2023-01-13T06:16:44.410Z,60.69
2023-01-13T06:17:44.403Z,60.69
2023-01-13T06:18:44.382Z,60.66
2023-01-13T06:19:44.384Z,60.55
2023-01-13T06:20:44.435Z,60.59
2023-01-13T06:21:44.431Z,60.41
2023-01-13T06:22:44.425Z,60.60
2023-01-13T06:23:44.395Z,60.80
2023-01-13T06:24:44.486Z,60.98
2023-01-13T06:25:44.403Z,60.64
2023-01-13T06:26:44.383Z,61.07
2023-01-13T06:27:44.433Z,60.71
2023-01-13T06:28:44.450Z,60.67
2023-01-13T06:29:44.476Z,60.21
2023-01-13T06:30:44.460Z,60.10
2023-01-13T06:31:44.529Z,59.66
2023-01-13T06:32:44.462Z,59.39
2023-01-13T06:33:44.452Z,59.39
2023-01-13T06:35:44.456Z,59.77
2023-01-13T06:36:44.470Z,59.51
2023-01-13T06:37:44.469Z,59.47
2023-01-13T06:38:44.463Z,59.54
2023-01-13T06:39:44.480Z,59.18
2023-01-13T06:40:44.462Z,59.18
2023-01-13T06:41:44.479Z,59.70
2023-01-13T06:42:44.440Z,59.70
2023-01-13T06:43:44.504Z,60.72
2023-01-13T06:44:44.462Z,60.43
2023-01-13T06:45:44.519Z,60.76
2023-01-13T06:46:44.487Z,61.29
2023-01-13T06:47:44.504Z,61.29
2023-01-13T06:48:44.502Z,61.27
2023-01-13T06:49:44.490Z,61.11
2023-01-13T06:50:44.581Z,60.94
2023-01-13T06:51:44.523Z,60.94
2023-01-13T06:52:44.524Z,61.35
2023-01-13T06:53:44.516Z,61.25
2023-01-13T06:54:44.521Z,61.61
2023-01-13T06:55:44.469Z,61.52
2023-01-13T06:56:44.526Z,61.46
2023-01-13T06:57:44.464Z,61.46
2023-01-13T06:58:44.574Z,61.60
2023-01-13T06:59:44.537Z,61.45
2023-01-13T07:00:44.628Z,61.45
2023-01-13T07:01:44.695Z,61.32
2023-01-13T07:02:44.550Z,61.32
2023-01-13T07:03:44.555Z,61.05
2023-01-13T07:04:44.529Z,60.95
2023-01-13T07:05:44.571Z,60.56
2023-01-13T07:06:44.595Z,60.54
2023-01-13T07:07:44.566Z,60.52
2023-01-13T07:08:45.421Z,60.60
2023-01-13T07:09:44.539Z,61.05
2023-01-13T07:10:44.517Z,61.69
2023-01-13T07:11:44.605Z,61.47
2023-01-13T07:12:44.586Z,60.83
2023-01-13T07:13:44.555Z,60.79
2023-01-13T07:14:44.563Z,60.74
2023-01-13T07:15:44.535Z,60.77
2023-01-13T07:16:44.662Z,60.77
2023-01-13T07:17:44.553Z,60.67
2023-01-13T07:18:44.570Z,60.66
2023-01-13T07:19:44.605Z,60.57
2023-01-13T07:20:44.571Z,61.07
2023-01-13T07:21:44.586Z,60.63
2023-01-13T07:22:44.598Z,60.63
2023-01-13T07:23:44.532Z,60.99
2023-01-13T07:24:44.598Z,60.74
2023-01-13T07:25:44.556Z,60.29
2023-01-13T07:26:44.615Z,60.29
2023-01-13T07:27:44.606Z,61.61
2023-01-13T07:28:44.613Z,61.44
2023-01-13T07:29:44.614Z,61.44
2023-01-13T07:30:44.576Z,62.17
2023-01-13T07:32:44.612Z,61.78
2023-01-13T07:33:44.620Z,61.75
2023-01-13T07:34:44.612Z,61.63
2023-01-13T07:35:44.648Z,61.43
2023-01-13T07:36:44.587Z,61.44
2023-01-13T07:37:44.582Z,61.40
2023-01-13T07:38:44.840Z,61.24
2023-01-13T07:39:44.602Z,61.32
2023-01-13T07:40:44.666Z,61.01
2023-01-13T07:42:44.646Z,61.01
2023-01-13T07:43:44.660Z,61.01
2023-01-13T07:44:44.655Z,60.71
2023-01-13T07:45:44.671Z,60.31
2023-01-13T07:46:44.649Z,60.20
2023-01-13T07:47:44.599Z,60.20
2023-01-13T07:48:44.651Z,60.14
2023-01-13T07:49:44.620Z,60.14
2023-01-13T07:50:44.630Z,60.17
2023-01-13T07:52:44.666Z,60.15
2023-01-13T07:53:44.702Z,60.10
2023-01-13T07:54:44.677Z,59.90
2023-01-13T07:55:44.668Z,59.90
2023-01-13T07:56:44.868Z,59.78
2023-01-13T07:57:44.676Z,59.78
2023-01-13T07:58:44.682Z,59.84
2023-01-13T07:59:44.703Z,59.79
2023-01-13T08:00:44.709Z,59.93
2023-01-13T08:01:44.782Z,60.01
2023-01-13T08:03:44.675Z,60.05
2023-01-13T08:04:44.679Z,60.05
2023-01-13T08:05:44.683Z,60.21
2023-01-13T08:06:44.658Z,60.21
2023-01-13T08:07:44.655Z,60.88
2023-01-13T08:08:44.675Z,61.02
2023-01-13T08:09:44.890Z,60.86
2023-01-13T08:11:44.704Z,60.78
2023-01-13T08:12:53.028Z,60.67
2023-01-13T08:13:44.863Z,60.76
2023-01-13T08:15:44.704Z,60.60
2023-01-13T08:16:44.792Z,60.94
2023-01-13T08:17:44.964Z,61.29
2023-01-13T08:18:44.703Z,61.18
2023-01-13T08:19:44.853Z,61.39
2023-01-13T08:20:44.695Z,61.09
2023-01-13T08:21:44.870Z,61.33
2023-01-13T08:22:44.924Z,61.31
2023-01-13T08:24:44.907Z,61.36
2023-01-13T08:25:44.853Z,61.36
2023-01-13T08:26:44.895Z,61.36
2023-01-13T08:27:44.893Z,61.41
2023-01-13T08:28:44.892Z,61.41
2023-01-13T08:29:44.845Z,61.16
2023-01-13T08:30:45.738Z,61.04
2023-01-13T08:31:44.921Z,61.08
2023-01-13T08:32:44.880Z,61.08
2023-01-13T08:33:44.906Z,60.70
2023-01-13T08:34:44.932Z,60.78
2023-01-13T08:35:44.888Z,60.64
2023-01-13T08:36:44.905Z,60.64
2023-01-13T08:37:44.925Z,60.70
2023-01-13T08:38:44.950Z,61.00
2023-01-13T08:39:44.996Z,61.19
2023-01-13T08:40:44.924Z,61.19
2023-01-13T08:41:44.881Z,60.92
2023-01-13T08:42:47.038Z,60.75
2023-01-13T08:43:44.983Z,61.23
2023-01-13T08:44:44.993Z,61.49
2023-01-13T08:45:45.150Z,61.71
2023-01-13T08:46:44.962Z,61.90
2023-01-13T08:47:44.977Z,61.85
2023-01-13T08:48:44.982Z,61.78
2023-01-13T08:49:44.943Z,61.51
2023-01-13T08:50:44.930Z,61.51
2023-01-13T08:51:45.061Z,61.84
2023-01-13T08:52:44.970Z,61.84
2023-01-13T08:54:44.990Z,61.16
2023-01-13T08:55:45.005Z,61.05
2023-01-13T08:56:45.093Z,60.96
2023-01-13T08:57:44.990Z,60.96
2023-01-13T08:58:45.008Z,59.99
2023-01-13T08:59:44.986Z,59.77
2023-01-13T09:00:45.015Z,59.66
2023-01-13T09:02:44.985Z,59.66
2023-01-13T09:03:45.008Z,59.66
2023-01-13T09:04:45.047Z,59.14
2023-01-13T09:05:45.008Z,58.70
2023-01-13T09:06:44.968Z,58.81
2023-01-13T09:07:45.007Z,58.76
2023-01-13T09:08:45.029Z,58.66
2023-01-13T09:09:44.974Z,55.67
2023-01-13T09:10:44.981Z,51.72
2023-01-13T09:11:45.003Z,48.42
2023-01-13T09:12:44.991Z,44.79
2023-01-13T09:13:44.985Z,42.07
2023-01-13T09:14:45.012Z,40.27
2023-01-13T09:15:45.042Z,38.22
2023-01-13T09:16:44.975Z,37.47
2023-01-13T09:17:45.005Z,35.21
2023-01-13T09:18:45.042Z,34.81
2023-01-13T09:19:45.020Z,33.69
2023-01-13T09:20:44.953Z,32.96
2023-01-13T09:21:45.012Z,31.81
2023-01-13T09:22:45.003Z,30.76
2023-01-13T09:23:45.018Z,30.44
2023-01-13T09:24:44.986Z,29.67
2023-01-13T09:25:44.966Z,28.72
2023-01-13T09:26:44.987Z,28.40
2023-01-13T09:27:44.993Z,27.80
2023-01-13T09:28:45.040Z,27.33
2023-01-13T09:29:44.998Z,27.26
2023-01-13T09:30:45.065Z,26.33
2023-01-13T09:31:44.960Z,26.44
2023-01-13T09:32:45.020Z,26.12
2023-01-13T09:33:45.012Z,26.77
2023-01-13T09:34:45.023Z,27.83
2023-01-13T09:35:44.963Z,29.42
2023-01-13T09:36:44.983Z,30.44
2023-01-13T09:37:44.963Z,31.60
2023-01-13T09:38:44.999Z,31.93
2023-01-13T09:39:44.977Z,32.84
2023-01-13T09:40:45.017Z,34.60
2023-01-13T09:41:44.963Z,36.74
2023-01-13T09:42:44.995Z,38.95
2023-01-13T09:43:45.021Z,40.79
2023-01-13T09:44:45.009Z,42.38
2023-01-13T09:45:45.023Z,43.72
2023-01-13T09:46:45.093Z,44.28
2023-01-13T09:47:45.034Z,42.45
2023-01-13T09:48:45.016Z,41.24
2023-01-13T09:49:44.997Z,39.33
2023-01-13T09:50:45.017Z,37.87
2023-01-13T09:52:45.010Z,38.16
2023-01-13T09:53:44.992Z,39.39
2023-01-13T09:54:44.984Z,40.74
2023-01-13T09:55:45.008Z,42.24
2023-01-13T09:56:45.027Z,44.12
2023-01-13T09:57:45.028Z,45.49
2023-01-13T09:58:45.022Z,46.42
2023-01-13T09:59:45.020Z,47.73
2023-01-13T10:00:44.983Z,48.66
2023-01-13T10:01:44.955Z,48.94
2023-01-13T10:02:44.975Z,49.69
2023-01-13T10:03:45.075Z,50.48
2023-01-13T10:04:45.042Z,51.07
2023-01-13T10:05:45.014Z,51.71
2023-01-13T10:06:45.036Z,51.68
2023-01-13T10:07:45.048Z,50.43
2023-01-13T10:08:45.045Z,47.69
2023-01-13T10:09:45.045Z,46.58
2023-01-13T10:10:44.999Z,44.86
2023-01-13T10:11:45.011Z,42.60
2023-01-13T10:12:45.031Z,39.73
2023-01-13T10:13:45.019Z,37.85
2023-01-13T10:14:44.979Z,37.75
2023-01-13T10:15:45.019Z,36.79
2023-01-13T10:16:45.010Z,36.16
2023-01-13T10:17:45.222Z,36.63
2023-01-13T10:18:44.982Z,37.13
2023-01-13T10:19:45.024Z,37.13
2023-01-13T10:20:45.080Z,38.23
2023-01-13T10:21:45.028Z,39.00
2023-01-13T10:22:45.047Z,39.41
2023-01-13T10:23:45.053Z,40.24
2023-01-13T10:24:45.061Z,40.97
2023-01-13T10:25:45.016Z,41.80
2023-01-13T10:26:45.014Z,41.80
2023-01-13T10:27:45.045Z,42.68
2023-01-13T10:28:45.060Z,43.85
2023-01-13T10:29:45.008Z,44.66
2023-01-13T10:30:45.002Z,45.39
2023-01-13T10:31:45.729Z,45.89
2023-01-13T10:32:45.010Z,46.96
2023-01-13T10:33:45.074Z,46.89
2023-01-13T10:34:45.043Z,46.89
2023-01-13T10:35:45.039Z,48.12
2023-01-13T10:36:45.102Z,49.17
2023-01-13T10:37:45.016Z,49.17
2023-01-13T10:38:45.021Z,50.85
2023-01-13T10:39:45.048Z,50.85
2023-01-13T10:40:45.085Z,52.01
2023-01-13T10:41:45.129Z,52.69
2023-01-13T10:42:45.041Z,52.70
2023-01-13T10:43:45.044Z,53.17
2023-01-13T10:44:45.076Z,53.42
2023-01-13T10:45:45.090Z,53.42
2023-01-13T10:46:45.159Z,54.16
2023-01-13T10:47:45.092Z,54.16
2023-01-13T10:48:45.082Z,54.74
2023-01-13T10:49:45.095Z,55.08
2023-01-13T10:50:45.058Z,55.09
2023-01-13T10:51:45.093Z,54.76
2023-01-13T10:52:45.057Z,54.62
2023-01-13T10:53:45.110Z,54.71
2023-01-13T10:54:45.142Z,54.61
2023-01-13T10:55:45.058Z,54.44
2023-01-13T10:56:45.082Z,54.44
2023-01-13T10:57:45.101Z,54.67
2023-01-13T10:58:45.079Z,53.86
2023-01-13T10:59:45.094Z,53.45
2023-01-13T11:00:45.092Z,53.10
2023-01-13T11:01:45.247Z,53.03
2023-01-13T11:02:45.171Z,53.07
2023-01-13T11:03:45.092Z,53.07
2023-01-13T11:04:45.171Z,52.64
2023-01-13T11:05:45.134Z,52.99
2023-01-13T11:06:45.116Z,52.99
2023-01-13T11:07:45.171Z,53.17
2023-01-13T11:08:45.230Z,53.42
2023-01-13T11:09:45.103Z,53.42
2023-01-13T11:10:45.159Z,53.34
2023-01-13T11:11:45.142Z,53.42
2023-01-13T11:12:45.169Z,53.42
2023-01-13T11:13:45.134Z,53.68
2023-01-13T11:14:45.097Z,53.57
2023-01-13T11:15:45.943Z,53.65
2023-01-13T11:16:52.880Z,53.65
2023-01-13T11:17:45.119Z,53.92
2023-01-13T11:18:45.151Z,53.92
2023-01-13T11:19:45.163Z,53.98
2023-01-13T11:20:45.185Z,54.39
2023-01-13T11:21:45.160Z,54.74
2023-01-13T11:22:45.181Z,55.06
2023-01-13T11:23:45.218Z,55.13
2023-01-13T11:24:45.180Z,55.13
2023-01-13T11:26:45.144Z,55.75
2023-01-13T11:27:45.186Z,56.11
2023-01-13T11:28:45.248Z,56.46
2023-01-13T11:30:45.170Z,56.64
2023-01-13T11:31:45.282Z,57.06
2023-01-13T11:32:45.177Z,57.06
2023-01-13T11:33:45.188Z,57.15
2023-01-13T11:34:45.174Z,57.15
2023-01-13T11:35:45.154Z,57.40
2023-01-13T11:36:45.227Z,57.73
2023-01-13T11:37:45.220Z,57.99
2023-01-13T11:38:45.232Z,57.82
2023-01-13T11:39:45.221Z,57.82
2023-01-13T11:40:45.266Z,57.67
2023-01-13T11:41:45.239Z,58.07
2023-01-13T11:42:45.250Z,58.76
2023-01-13T11:43:45.227Z,58.76
2023-01-13T11:44:45.274Z,59.19
2023-01-13T11:45:45.251Z,59.03
2023-01-13T11:46:45.260Z,58.67
2023-01-13T11:47:45.218Z,59.03
2023-01-13T11:48:45.217Z,59.37
2023-01-13T11:49:45.233Z,59.37
2023-01-13T11:50:45.260Z,59.28
2023-01-13T11:51:45.269Z,59.48
2023-01-13T11:52:45.210Z,59.48
2023-01-13T11:53:45.212Z,59.62
2023-01-13T11:54:45.261Z,60.32
2023-01-13T11:55:45.216Z,60.07
2023-01-13T11:56:45.225Z,59.96
2023-01-13T11:57:45.267Z,60.18
2023-01-13T11:58:50.655Z,60.73
2023-01-13T11:59:45.264Z,60.54
2023-01-13T12:00:45.262Z,60.54
2023-01-13T12:01:45.281Z,59.89
2023-01-13T12:02:45.243Z,59.49
2023-01-13T12:03:45.313Z,59.15
2023-01-13T12:04:45.245Z,59.09
2023-01-13T12:05:45.269Z,59.19
2023-01-13T12:06:45.251Z,58.87
2023-01-13T12:07:45.255Z,59.14
2023-01-13T12:08:45.256Z,59.14
2023-01-13T12:09:45.287Z,59.18
2023-01-13T12:10:45.298Z,58.29
2023-01-13T12:11:45.249Z,58.25
2023-01-13T12:12:45.316Z,57.71
2023-01-13T12:13:45.341Z,56.44
2023-01-13T12:14:45.256Z,56.43
2023-01-13T12:15:45.261Z,56.43
2023-01-13T12:16:45.261Z,56.33
2023-01-13T12:17:45.312Z,55.45
2023-01-13T12:18:45.338Z,55.36
2023-01-13T12:19:45.305Z,55.36
2023-01-13T12:20:45.327Z,54.44
2023-01-13T12:21:45.321Z,54.50
2023-01-13T12:22:45.283Z,54.50
2023-01-13T12:23:45.328Z,54.80
2023-01-13T12:24:45.292Z,54.80
2023-01-13T12:25:45.306Z,54.50
2023-01-13T12:26:45.341Z,54.04
2023-01-13T12:27:47.307Z,54.04
2023-01-13T12:28:45.428Z,53.67
2023-01-13T12:29:45.302Z,54.07
2023-01-13T12:30:45.327Z,54.07
2023-01-13T12:31:45.411Z,53.48
2023-01-13T12:32:45.360Z,53.84
2023-01-13T12:33:45.318Z,53.36
2023-01-13T12:34:45.341Z,53.59
2023-01-13T12:35:45.343Z,53.59
2023-01-13T12:36:45.352Z,54.13
2023-01-13T12:37:45.410Z,54.66
2023-01-13T12:38:45.326Z,54.50
2023-01-13T12:39:45.351Z,54.66
2023-01-13T12:40:45.327Z,54.66
2023-01-13T12:41:45.348Z,55.22
2023-01-13T12:42:45.325Z,55.22
2023-01-13T12:43:45.356Z,54.90
2023-01-13T12:44:45.343Z,54.95
2023-01-13T12:45:45.384Z,54.38
2023-01-13T12:46:45.805Z,54.20
2023-01-13T12:47:45.431Z,54.18
2023-01-13T12:48:45.410Z,54.20
2023-01-13T12:49:45.396Z,54.20
2023-01-13T12:50:45.387Z,54.07
2023-01-13T12:51:45.411Z,54.56
2023-01-13T12:52:45.450Z,54.54
2023-01-13T12:53:45.411Z,54.88
2023-01-13T12:54:45.403Z,55.55
2023-01-13T12:55:45.430Z,55.56
2023-01-13T12:56:45.376Z,55.67
2023-01-13T12:57:45.418Z,55.90
2023-01-13T12:58:45.424Z,56.22
2023-01-13T12:59:45.421Z,56.29
2023-01-13T13:00:45.569Z,56.48
2023-01-13T13:01:45.560Z,56.14
2023-01-13T13:02:45.422Z,56.14
2023-01-13T13:03:45.385Z,56.71
2023-01-13T13:04:48.481Z,56.73
2023-01-13T13:05:45.426Z,56.93
2023-01-13T13:06:45.392Z,57.17
2023-01-13T13:07:45.377Z,57.17
2023-01-13T13:08:45.425Z,56.77
2023-01-13T13:09:45.405Z,56.77
2023-01-13T13:10:45.442Z,56.30
2023-01-13T13:11:45.442Z,56.30
2023-01-13T13:12:45.429Z,56.12
2023-01-13T13:16:45.512Z,55.94
2023-01-13T13:18:45.512Z,55.31
2023-01-13T13:19:45.460Z,55.31
2023-01-13T13:20:45.460Z,54.88
2023-01-13T13:21:45.494Z,54.57
2023-01-13T13:23:45.499Z,54.96
2023-01-13T13:24:45.492Z,54.81
2023-01-13T13:25:45.471Z,54.79
2023-01-13T13:26:45.514Z,54.71
2023-01-13T13:28:45.487Z,53.91
2023-01-13T13:29:45.559Z,54.01
2023-01-13T13:30:45.484Z,54.02
2023-01-13T13:31:45.491Z,54.40
2023-01-13T13:32:45.487Z,54.17
2023-01-13T13:33:45.486Z,54.17
2023-01-13T13:36:45.514Z,54.02
2023-01-13T13:37:45.536Z,53.39
2023-01-13T13:38:45.482Z,53.39
2023-01-13T13:39:45.497Z,53.79